createdAt,value
2023-04-08T00:00:03.734Z,12.27
2023-04-08T00:02:31.766Z,12.02
2023-04-08T00:04:59.784Z,12.25
2023-04-08T00:07:27.486Z,12.20
2023-04-08T00:09:55.129Z,11.38
2023-04-08T00:12:24.236Z,11.80
2023-04-08T00:14:51.923Z,11.98
2023-04-08T00:17:19.667Z,10.45
2023-04-08T00:19:47.743Z,11.07
2023-04-08T00:22:15.452Z,9.37
2023-04-08T00:24:43.114Z,10.10
2023-04-08T00:27:10.744Z,9.80
2023-04-08T00:29:39.840Z,10.07
2023-04-08T00:32:07.774Z,9.00
2023-04-08T00:34:35.549Z,9.13
2023-04-08T00:37:03.233Z,8.98
2023-04-08T00:39:31.172Z,8.53
2023-04-08T00:41:58.865Z,8.88
2023-04-08T00:44:26.537Z,8.35
2023-04-08T00:46:55.699Z,8.30
2023-04-08T00:49:23.427Z,8.52
2023-04-08T00:51:51.608Z,8.30
2023-04-08T00:54:19.322Z,8.00
2023-04-08T00:56:47.122Z,8.05
2023-04-08T00:59:14.994Z,7.88
2023-04-08T01:01:45.591Z,7.73
2023-04-08T01:04:22.429Z,7.50
2023-04-08T01:06:53.198Z,7.47
2023-04-08T01:09:22.624Z,7.43
2023-04-08T01:11:51.783Z,8.18
2023-04-08T01:14:21.785Z,8.05
2023-04-08T01:16:49.390Z,7.78
2023-04-08T01:19:22.210Z,7.85
2023-04-08T01:21:50.331Z,7.55
2023-04-08T01:24:21.691Z,7.80
2023-04-08T01:26:51.112Z,7.30
2023-04-08T01:29:19.321Z,7.28
2023-04-08T01:31:48.040Z,8.27
2023-04-08T01:34:16.975Z,7.50
2023-04-08T01:36:45.582Z,7.95
2023-04-08T01:39:13.602Z,7.63
2023-04-08T01:41:41.810Z,7.57
2023-04-08T01:44:11.441Z,7.80
2023-04-08T01:46:40.415Z,7.47
2023-04-08T01:49:08.476Z,7.67
2023-04-08T01:51:37.653Z,7.13
2023-04-08T01:54:05.383Z,7.37
2023-04-08T01:56:34.538Z,8.00
2023-04-08T01:59:03.394Z,7.95
2023-04-08T02:01:34.048Z,7.63
2023-04-08T02:04:02.474Z,7.35
2023-04-08T02:06:31.188Z,8.32
2023-04-08T02:09:00.248Z,7.80
2023-04-08T02:11:28.317Z,8.27
2023-04-08T02:13:56.079Z,8.23
2023-04-08T02:16:25.095Z,8.40
2023-04-08T02:18:58.133Z,7.85
2023-04-08T02:21:29.280Z,7.93
2023-04-08T02:23:57.796Z,8.05
2023-04-08T02:26:25.931Z,8.65
2023-04-08T02:28:54.588Z,8.05
2023-04-08T02:31:22.733Z,8.20
2023-04-08T02:33:52.370Z,8.47
2023-04-08T02:36:21.666Z,8.15
2023-04-08T02:38:50.075Z,8.45
2023-04-08T02:41:18.047Z,8.00
2023-04-08T02:43:47.912Z,8.00
2023-04-08T02:46:16.034Z,9.10
2023-04-08T02:48:44.156Z,7.90
2023-04-08T02:51:11.845Z,8.23
2023-04-08T02:53:41.345Z,8.70
2023-04-08T02:56:11.443Z,7.57
2023-04-08T02:58:39.288Z,8.45
2023-04-08T03:01:08.931Z,8.00
2023-04-08T03:03:36.930Z,7.75
2023-04-08T03:06:04.907Z,7.70
2023-04-08T03:08:32.969Z,8.18
2023-04-08T03:11:02.114Z,7.50
2023-04-08T03:13:30.221Z,7.28
2023-04-08T03:15:57.916Z,7.90
2023-04-08T03:18:25.742Z,7.35
2023-04-08T03:20:53.522Z,7.70
2023-04-08T03:23:21.229Z,7.25
2023-04-08T03:25:48.958Z,7.07
2023-04-08T03:28:18.066Z,7.55
2023-04-08T03:30:45.873Z,7.45
2023-04-08T03:33:13.600Z,6.90
2023-04-08T03:35:41.323Z,6.85
2023-04-08T03:38:08.997Z,7.35
2023-04-08T03:40:36.629Z,6.88
2023-04-08T03:43:05.748Z,7.70
2023-04-08T03:45:34.909Z,7.55
2023-04-08T03:48:02.595Z,7.32
2023-04-08T03:50:30.521Z,7.55
2023-04-08T03:52:58.204Z,7.40
2023-04-08T03:55:25.970Z,7.43
2023-04-08T03:57:53.582Z,6.85
2023-04-08T04:00:21.301Z,7.57
2023-04-08T04:02:50.543Z,7.25
2023-04-08T04:05:18.485Z,7.30
2023-04-08T04:07:46.131Z,7.40
2023-04-08T04:10:13.859Z,7.97
2023-04-08T04:12:41.545Z,7.00
2023-04-08T04:15:09.774Z,7.13
2023-04-08T04:17:37.519Z,7.28
2023-04-08T04:20:07.690Z,7.32
2023-04-08T04:22:35.460Z,7.32
2023-04-08T04:25:03.174Z,7.53
2023-04-08T04:27:30.855Z,7.50
2023-04-08T04:29:58.471Z,7.82
2023-04-08T04:32:26.337Z,7.70
2023-04-08T04:34:54.065Z,7.72
2023-04-08T04:37:23.194Z,7.68
2023-04-08T04:39:50.937Z,8.10
2023-04-08T04:42:18.595Z,7.90
2023-04-08T04:44:46.491Z,8.07
2023-04-08T04:47:14.302Z,8.25
2023-04-08T04:49:42.086Z,7.85
2023-04-08T04:52:09.783Z,8.60
2023-04-08T04:54:38.890Z,8.60
2023-04-08T04:57:06.554Z,7.43
2023-04-08T04:59:34.254Z,8.18
2023-04-08T05:02:02.071Z,8.68
2023-04-08T05:04:29.886Z,7.93
2023-04-08T05:07:00.464Z,8.02
2023-04-08T05:09:28.151Z,7.55
2023-04-08T05:11:57.250Z,7.70
2023-04-08T05:14:24.889Z,7.97
2023-04-08T05:16:52.547Z,7.63
2023-04-08T05:19:20.350Z,7.53
2023-04-08T05:21:47.981Z,7.40
2023-04-08T05:24:15.655Z,7.53
2023-04-08T05:26:43.336Z,7.90
2023-04-08T05:29:12.432Z,7.20
2023-04-08T05:31:40.217Z,7.47
2023-04-08T05:34:07.981Z,7.60
2023-04-08T05:36:35.759Z,8.05
2023-04-08T05:39:03.583Z,7.63
2023-04-08T05:41:31.235Z,7.97
2023-04-08T05:43:58.980Z,7.90
2023-04-08T05:46:28.159Z,7.63
2023-04-08T05:48:55.851Z,7.60
2023-04-08T05:51:23.516Z,7.90
2023-04-08T05:53:51.458Z,7.68
2023-04-08T05:56:19.084Z,7.72
2023-04-08T05:58:46.786Z,7.70
2023-04-08T06:01:14.679Z,8.05
2023-04-08T06:03:44.157Z,7.80
2023-04-08T06:06:12.789Z,8.55
2023-04-08T06:08:40.526Z,9.02
2023-04-08T06:11:08.883Z,9.38
2023-04-08T06:13:37.277Z,9.48
2023-04-08T06:16:12.052Z,9.27
2023-04-08T06:18:39.784Z,9.73
2023-04-08T06:21:08.844Z,9.60
2023-04-08T06:23:36.878Z,8.60
2023-04-08T06:26:04.782Z,8.70
2023-04-08T06:28:33.059Z,9.18
2023-04-08T06:31:01.022Z,8.90
2023-04-08T06:33:28.698Z,8.80
2023-04-08T06:36:03.848Z,9.00
2023-04-08T06:38:33.282Z,9.10
2023-04-08T06:41:06.381Z,8.98
2023-04-08T06:43:34.443Z,9.18
2023-04-08T06:46:02.538Z,9.52
2023-04-08T06:48:33.258Z,9.50
2023-04-08T06:51:01.875Z,9.18
2023-04-08T06:53:31.256Z,9.43
2023-04-08T06:56:00.720Z,10.07
2023-04-08T06:58:28.561Z,9.85
2023-04-08T07:00:56.761Z,10.02
2023-04-08T07:03:24.750Z,10.25
2023-04-08T07:05:52.601Z,10.35
2023-04-08T07:08:20.655Z,10.18
2023-04-08T07:10:48.409Z,11.00
2023-04-08T07:13:17.509Z,10.90
2023-04-08T07:15:45.246Z,10.63
2023-04-08T07:18:13.578Z,10.82
2023-04-08T07:20:42.004Z,10.43
2023-04-08T07:23:09.781Z,11.00
2023-04-08T07:25:37.516Z,10.97
2023-04-08T07:28:05.404Z,10.85
2023-04-08T07:30:34.583Z,11.73
2023-04-08T07:33:02.273Z,11.35
2023-04-08T07:35:30.226Z,11.45
2023-04-08T07:37:57.970Z,11.32
2023-04-08T07:40:25.825Z,11.45
2023-04-08T07:42:53.566Z,10.80
2023-04-08T07:45:21.438Z,11.75
2023-04-08T07:47:50.600Z,11.20
2023-04-08T07:50:18.479Z,11.55
2023-04-08T07:52:46.162Z,11.73
2023-04-08T07:55:13.926Z,11.85
2023-04-08T07:57:41.892Z,11.98
2023-04-08T08:00:10.453Z,10.52
2023-04-08T08:02:38.172Z,11.05
2023-04-08T08:05:08.136Z,10.82
2023-04-08T08:07:36.462Z,10.23
2023-04-08T08:10:04.247Z,10.10
2023-04-08T08:12:31.939Z,10.48
2023-04-08T08:14:59.893Z,10.57
2023-04-08T08:17:30.219Z,11.18
2023-04-08T08:19:58.052Z,11.05
2023-04-08T08:22:27.285Z,10.10
2023-04-08T08:24:57.648Z,9.73
2023-04-08T08:27:25.512Z,8.70
2023-04-08T08:30:26.516Z,9.05
2023-04-08T08:32:54.274Z,9.98
2023-04-08T08:35:21.981Z,10.27
2023-04-08T08:37:49.725Z,9.75
2023-04-08T08:40:17.695Z,9.57
2023-04-08T08:42:51.339Z,10.43
2023-04-08T08:45:19.281Z,9.20
2023-04-08T08:47:50.820Z,8.95
2023-04-08T08:50:19.002Z,9.50
2023-04-08T08:52:50.651Z,10.48
2023-04-08T08:55:36.189Z,10.20
2023-04-08T08:58:07.555Z,10.73
2023-04-08T09:00:36.512Z,10.48
2023-04-08T09:03:21.917Z,10.38
2023-04-08T09:05:51.152Z,10.30
2023-04-08T09:08:29.884Z,10.77
2023-04-08T09:10:58.429Z,10.90
2023-04-08T09:13:26.547Z,11.27
2023-04-08T09:16:04.968Z,11.45
2023-04-08T09:18:34.876Z,11.93
2023-04-08T09:21:02.767Z,11.43
2023-04-08T09:23:40.184Z,10.73
2023-04-08T09:26:11.843Z,10.32
2023-04-08T09:28:40.829Z,10.90
2023-04-08T09:31:21.894Z,10.00
2023-04-08T09:33:52.446Z,9.70
2023-04-08T09:36:20.428Z,10.15
2023-04-08T09:38:48.989Z,9.90
2023-04-08T09:41:17.815Z,9.55
2023-04-08T09:43:49.710Z,9.90
2023-04-08T09:46:19.414Z,10.05
2023-04-08T09:48:54.145Z,10.43
2023-04-08T09:51:24.308Z,10.38
2023-04-08T09:53:57.652Z,10.00
2023-04-08T09:56:27.039Z,10.23
2023-04-08T09:58:59.231Z,10.18
2023-04-08T10:01:30.865Z,10.45
2023-04-08T10:04:01.416Z,10.73
2023-04-08T10:06:31.457Z,10.35
2023-04-08T10:08:59.417Z,9.93
2023-04-08T10:11:27.390Z,10.10
2023-04-08T10:13:55.264Z,9.55
2023-04-08T10:16:25.918Z,8.77
2023-04-08T10:18:56.105Z,9.32
2023-04-08T10:21:39.451Z,9.75
2023-04-08T10:24:08.514Z,9.48
2023-04-08T10:26:38.072Z,10.40
2023-04-08T10:29:41.999Z,10.93
2023-04-08T10:32:09.733Z,10.18
2023-04-08T10:34:53.133Z,10.55
2023-04-08T10:37:22.201Z,10.90
2023-04-08T10:39:55.510Z,11.45
2023-04-08T10:42:28.688Z,12.07
2023-04-08T10:45:01.493Z,11.48
2023-04-08T10:47:29.258Z,10.00
2023-04-08T10:49:57.848Z,9.50
2023-04-08T10:52:27.581Z,9.77
2023-04-08T10:54:55.644Z,10.18
2023-04-08T10:57:26.954Z,10.38
2023-04-08T10:59:54.579Z,11.30
2023-04-08T11:02:22.294Z,13.05
2023-04-08T11:04:50.642Z,13.37
2023-04-08T11:07:21.744Z,12.85
2023-04-08T11:09:51.371Z,11.80
2023-04-08T11:12:19.764Z,13.52
2023-04-08T11:14:48.556Z,13.90
2023-04-08T11:17:17.804Z,14.13
2023-04-08T11:19:45.752Z,13.38
2023-04-08T11:22:14.477Z,12.15
2023-04-08T11:24:42.340Z,14.48
2023-04-08T11:27:11.483Z,14.93
2023-04-08T11:29:39.930Z,15.15
2023-04-08T11:32:08.912Z,14.68
2023-04-08T11:34:40.482Z,15.15
2023-04-08T11:37:08.230Z,13.82
2023-04-08T11:39:36.362Z,13.23
2023-04-08T11:42:04.134Z,13.50
2023-04-08T11:44:33.774Z,13.90
2023-04-08T11:47:02.278Z,15.05
2023-04-08T11:49:44.947Z,14.95
2023-04-08T11:52:12.611Z,15.40
2023-04-08T11:54:42.981Z,17.27
2023-04-08T11:57:11.403Z,16.20
2023-04-08T11:59:40.488Z,15.63
2023-04-08T12:02:08.375Z,16.50
2023-04-08T12:04:36.217Z,15.77
2023-04-08T12:07:04.288Z,15.02
2023-04-08T12:09:31.992Z,14.77
2023-04-08T12:11:59.728Z,15.35
2023-04-08T12:14:28.572Z,15.35
2023-04-08T12:16:58.291Z,15.03
2023-04-08T12:19:27.031Z,15.35
2023-04-08T12:21:54.715Z,15.87
2023-04-08T12:24:22.428Z,15.85
2023-04-08T12:26:50.194Z,17.30
2023-04-08T12:29:17.895Z,16.67
2023-04-08T12:31:45.753Z,17.08
2023-04-08T12:34:15.234Z,16.33
2023-04-08T12:36:43.166Z,16.65
2023-04-08T12:39:11.000Z,16.77
2023-04-08T12:41:38.665Z,16.05
2023-04-08T12:44:06.638Z,16.93
2023-04-08T12:46:34.852Z,17.05
2023-04-08T12:49:04.877Z,17.23
2023-04-08T12:51:34.815Z,16.92
2023-04-08T12:54:03.617Z,17.27
2023-04-08T12:56:31.643Z,16.52
2023-04-08T12:58:59.485Z,17.43
2023-04-08T13:01:27.648Z,16.50
2023-04-08T13:03:55.790Z,16.15
2023-04-08T13:06:24.122Z,18.02
2023-04-08T13:08:53.285Z,18.30
2023-04-08T13:11:21.217Z,18.15
2023-04-08T13:13:49.469Z,17.38
2023-04-08T13:16:17.757Z,18.38
2023-04-08T13:18:45.437Z,16.98
2023-04-08T13:21:13.191Z,17.83
2023-04-08T13:23:40.858Z,17.05
2023-04-08T13:26:09.989Z,16.93
2023-04-08T13:28:49.733Z,15.87
2023-04-08T13:31:24.262Z,16.05
2023-04-08T13:33:52.938Z,15.57
2023-04-08T13:36:21.573Z,16.67
2023-04-08T13:38:49.406Z,15.20
2023-04-08T13:41:18.859Z,15.52
2023-04-08T13:43:46.603Z,14.98
2023-04-08T13:46:14.371Z,13.65
2023-04-08T13:48:42.488Z,14.93
2023-04-08T13:51:10.353Z,15.50
2023-04-08T13:53:37.974Z,15.90
2023-04-08T13:56:06.020Z,15.70
2023-04-08T13:58:35.162Z,15.50
2023-04-08T14:01:02.917Z,15.63
2023-04-08T14:03:30.717Z,16.02
2023-04-08T14:06:01.071Z,15.50
2023-04-08T14:08:29.515Z,16.48
2023-04-08T14:10:57.806Z,16.80
2023-04-08T14:13:25.585Z,16.75
2023-04-08T14:15:56.247Z,16.65
2023-04-08T14:18:23.955Z,15.90
2023-04-08T14:20:51.770Z,16.85
2023-04-08T14:23:19.645Z,17.38
2023-04-08T14:25:47.653Z,16.65
2023-04-08T14:28:15.579Z,17.08
2023-04-08T14:30:43.692Z,16.85
2023-04-08T14:33:13.272Z,16.05
2023-04-08T14:35:41.333Z,17.17
2023-04-08T14:38:09.101Z,16.70
2023-04-08T14:40:37.791Z,16.83
2023-04-08T14:43:05.796Z,16.13
2023-04-08T14:45:33.985Z,15.70
2023-04-08T14:48:02.127Z,15.10
2023-04-08T14:50:31.688Z,15.65
2023-04-08T14:52:59.381Z,16.63
2023-04-08T14:55:28.466Z,16.27
2023-04-08T14:57:56.168Z,16.20
2023-04-08T15:00:24.236Z,17.02
2023-04-08T15:02:52.031Z,16.35
2023-04-08T15:05:19.751Z,17.65
2023-04-08T15:07:49.200Z,17.33
2023-04-08T15:10:16.909Z,17.73
2023-04-08T15:12:44.578Z,18.55
2023-04-08T15:15:12.485Z,19.17
2023-04-08T15:17:40.163Z,18.50
2023-04-08T15:20:09.113Z,19.38
2023-04-08T15:22:36.737Z,19.20
2023-04-08T15:25:06.542Z,19.35
2023-04-08T15:27:36.152Z,18.70
2023-04-08T15:30:03.945Z,18.48
2023-04-08T15:32:32.340Z,18.60
2023-04-08T15:35:00.624Z,19.63
2023-04-08T15:37:28.516Z,19.73
2023-04-08T15:39:56.250Z,20.15
2023-04-08T15:42:29.024Z,20.40
2023-04-08T15:44:56.778Z,21.00
2023-04-08T15:47:24.494Z,20.13
2023-04-08T15:49:53.758Z,20.10
2023-04-08T15:52:21.384Z,19.70
2023-04-08T15:54:49.050Z,18.67
2023-04-08T15:57:16.753Z,18.48
2023-04-08T15:59:45.838Z,17.55
2023-04-08T16:02:13.656Z,18.80
2023-04-08T16:04:41.498Z,17.65
2023-04-08T16:07:09.278Z,17.37
2023-04-08T16:09:36.932Z,17.85
2023-04-08T16:12:04.905Z,18.87
2023-04-08T16:14:32.906Z,18.80
2023-04-08T16:19:53.411Z,19.35
2023-04-08T16:22:24.537Z,18.38
2023-04-08T16:24:53.194Z,18.52
2023-04-08T16:27:21.086Z,19.05
2023-04-08T16:29:48.804Z,18.60
2023-04-08T16:32:17.956Z,18.23
2023-04-08T16:34:46.002Z,18.15
2023-04-08T16:37:14.852Z,17.58
2023-04-08T16:39:44.676Z,18.55
2023-04-08T16:42:12.422Z,18.67
2023-04-08T16:44:40.748Z,17.63
2023-04-08T16:47:08.417Z,18.52
2023-04-08T16:49:37.524Z,18.95
2023-04-08T16:52:05.362Z,18.38
2023-04-08T16:54:33.032Z,17.70
2023-04-08T16:57:01.247Z,19.05
2023-04-08T16:59:29.208Z,19.42
2023-04-08T17:01:57.589Z,19.33
2023-04-08T17:04:25.553Z,19.30
2023-04-08T17:06:54.866Z,19.45
2023-04-08T17:09:23.146Z,18.70
2023-04-08T17:11:50.824Z,19.30
2023-04-08T17:14:20.584Z,19.05
2023-04-08T17:16:48.763Z,19.67
2023-04-08T17:19:17.907Z,20.13
2023-04-08T17:21:46.246Z,19.63
2023-04-08T17:24:15.450Z,20.50
2023-04-08T17:26:44.964Z,20.85
2023-04-08T17:29:12.743Z,20.60
2023-04-08T17:31:41.516Z,20.58
2023-04-08T17:34:09.335Z,20.48
2023-04-08T17:36:37.170Z,20.90
2023-04-08T17:39:04.848Z,21.50
2023-04-08T17:41:39.605Z,20.80
2023-04-08T17:44:07.836Z,21.70
2023-04-08T17:46:35.578Z,21.52
2023-04-08T17:49:03.281Z,21.77
2023-04-08T17:51:32.027Z,21.70
2023-04-08T17:53:59.940Z,21.15
2023-04-08T17:56:28.301Z,22.23
2023-04-08T17:58:57.434Z,21.38
2023-04-08T18:01:25.673Z,21.48
2023-04-08T18:03:53.670Z,21.92
2023-04-08T18:06:21.646Z,21.95
2023-04-08T18:08:49.396Z,21.65
2023-04-08T18:11:17.052Z,23.08
2023-04-08T18:13:46.034Z,23.13
2023-04-08T18:16:19.104Z,22.63
2023-04-08T18:18:46.907Z,22.70
2023-04-08T18:21:15.129Z,22.60
2023-04-08T18:23:42.893Z,22.77
2023-04-08T18:26:11.122Z,22.30
2023-04-08T18:28:38.886Z,23.45
2023-04-08T18:31:08.577Z,23.17
2023-04-08T18:33:39.030Z,23.48
2023-04-08T18:36:08.659Z,24.15
2023-04-08T18:38:37.323Z,24.02
2023-04-08T18:41:05.198Z,24.42
2023-04-08T18:43:33.176Z,24.55
2023-04-08T18:46:01.279Z,23.83
2023-04-08T18:48:29.525Z,24.80
2023-04-08T18:50:58.679Z,25.25
2023-04-08T18:53:26.453Z,25.83
2023-04-08T18:55:54.259Z,24.38
2023-04-08T18:58:21.997Z,25.35
2023-04-08T19:00:49.782Z,25.45
2023-04-08T19:03:19.548Z,25.75
2023-04-08T19:05:47.536Z,25.17
2023-04-08T19:08:16.974Z,25.70
2023-04-08T19:10:44.689Z,26.15
2023-04-08T19:13:12.559Z,26.57
2023-04-08T19:15:40.364Z,27.27
2023-04-08T19:18:09.847Z,26.98
2023-04-08T19:20:38.033Z,27.65
2023-04-08T19:23:05.915Z,28.85
2023-04-08T19:25:35.130Z,27.92
2023-04-08T19:28:02.963Z,28.77
2023-04-08T19:30:30.912Z,28.27
2023-04-08T19:32:59.873Z,27.80
2023-04-08T19:35:29.599Z,28.70
2023-04-08T19:37:57.874Z,30.88
2023-04-08T19:40:26.066Z,29.55
2023-04-08T19:42:57.004Z,30.67
2023-04-08T19:45:24.936Z,29.42
2023-04-08T19:47:52.735Z,28.92
2023-04-08T19:50:22.220Z,30.38
2023-04-08T19:52:50.019Z,30.13
2023-04-08T19:55:18.004Z,30.55
2023-04-08T19:57:45.829Z,30.83
2023-04-08T20:00:15.317Z,32.85
2023-04-08T20:02:43.152Z,32.70
2023-04-08T20:05:14.782Z,31.53
2023-04-08T20:07:42.611Z,31.88
2023-04-08T20:10:12.393Z,31.77
2023-04-08T20:12:40.858Z,32.92
2023-04-08T20:15:22.857Z,32.37
2023-04-08T20:17:54.246Z,32.83
2023-04-08T20:20:22.654Z,33.50
2023-04-08T20:22:50.846Z,34.88
2023-04-08T20:25:18.723Z,33.88
2023-04-08T20:27:46.412Z,34.97
2023-04-08T20:30:14.297Z,34.00
2023-04-08T20:32:42.641Z,34.15
2023-04-08T20:35:13.423Z,36.58
2023-04-08T20:37:41.572Z,37.65
2023-04-08T20:40:10.399Z,38.17
2023-04-08T20:42:38.695Z,39.90
2023-04-08T20:45:07.572Z,41.05
2023-04-08T20:47:35.436Z,38.92
2023-04-08T20:50:03.415Z,38.80
2023-04-08T20:52:32.616Z,37.75
2023-04-08T20:55:00.516Z,36.85
2023-04-08T20:57:28.304Z,39.00
2023-04-08T20:59:56.023Z,38.33
2023-04-08T21:02:24.571Z,38.33
2023-04-08T21:04:52.512Z,38.28
2023-04-08T21:07:20.389Z,37.90
2023-04-08T21:09:49.772Z,38.67
2023-04-08T21:12:17.579Z,39.53
2023-04-08T21:14:47.340Z,37.50
2023-04-08T21:17:15.447Z,35.05
2023-04-08T21:19:43.443Z,34.72
2023-04-08T21:22:11.161Z,29.77
2023-04-08T21:24:38.868Z,28.92
2023-04-08T21:27:08.077Z,29.33
2023-04-08T21:29:36.247Z,28.95
2023-04-08T21:32:06.663Z,27.23
2023-04-08T21:34:35.044Z,26.85
2023-04-08T21:37:03.093Z,27.60
2023-04-08T21:39:31.082Z,27.58
2023-04-08T21:41:59.012Z,27.25
2023-04-08T21:44:28.437Z,27.10
2023-04-08T21:46:56.424Z,26.00
2023-04-08T21:49:24.323Z,25.90
2023-04-08T21:51:52.110Z,26.50
2023-04-08T21:54:19.852Z,28.15
2023-04-08T21:56:47.802Z,27.05
2023-04-08T21:59:15.469Z,28.88
2023-04-08T22:01:44.730Z,27.98
2023-04-08T22:04:12.746Z,27.75
2023-04-08T22:06:40.456Z,25.75
2023-04-08T22:09:08.178Z,25.13
2023-04-08T22:11:35.860Z,24.97
2023-04-08T22:14:03.592Z,25.98
2023-04-08T22:16:32.169Z,27.23
2023-04-08T22:19:01.390Z,26.38
2023-04-08T22:21:29.276Z,26.73
2023-04-08T22:23:57.356Z,27.00
2023-04-08T22:26:25.066Z,26.10
2023-04-08T22:28:52.978Z,26.70
2023-04-08T22:31:21.045Z,26.25
2023-04-08T22:33:48.966Z,25.58
2023-04-08T22:36:18.084Z,26.88
2023-04-08T22:38:46.352Z,25.80
2023-04-08T22:41:20.752Z,27.23
2023-04-08T22:43:48.624Z,28.75
2023-04-08T22:46:18.123Z,29.63
2023-04-08T22:48:46.588Z,29.63
2023-04-08T22:51:14.312Z,28.02
2023-04-08T22:53:43.726Z,26.85
2023-04-08T22:56:11.567Z,27.00
2023-04-08T22:58:39.483Z,27.70
2023-04-08T23:01:12.720Z,27.10
2023-04-08T23:03:40.598Z,28.40
2023-04-08T23:06:08.304Z,29.42
2023-04-08T23:08:35.956Z,30.45
2023-04-08T23:11:05.201Z,28.60
2023-04-08T23:13:32.984Z,29.85
2023-04-08T23:16:01.391Z,29.35
2023-04-08T23:18:29.154Z,28.83
2023-04-08T23:20:57.643Z,29.98
2023-04-08T23:23:26.135Z,28.58
2023-04-08T23:25:55.756Z,30.33
2023-04-08T23:28:25.116Z,30.35
2023-04-08T23:30:52.864Z,29.95
2023-04-08T23:33:20.574Z,29.80
2023-04-08T23:35:48.292Z,29.63
2023-04-08T23:38:16.106Z,29.25
2023-04-08T23:40:43.778Z,29.60
2023-04-08T23:43:11.517Z,28.83
2023-04-08T23:45:40.571Z,29.48
2023-04-08T23:48:10.066Z,30.20
2023-04-08T23:50:38.031Z,29.00
2023-04-08T23:53:05.760Z,29.73
2023-04-08T23:55:33.443Z,29.37
2023-04-08T23:58:01.161Z,29.35
